Time;durP1;ratioP1;P1;durP2;ratioP2;P2;SDS_P1;SDS_P2;PMS_P1;PMS_P2;Temp;Humidity;BMP_temperature;BMP_pressure;BME280_temperature;BME280_humidity;BME280_pressure;Samples;Min_cycle;Max_cycle;Signal;HPM_P1;HPM_P2
2023/08/13 00:01:05;;;;;;;6.22;4.18;;;20.30;99.90;;;;;;5078487;28;20228;-72
2023/08/13 00:03:58;;;;;;;5.53;3.50;;;20.30;99.90;;;;;;5081999;28;20246;-73
2023/08/13 00:06:47;;;;;;;7.75;3.90;;;20.20;99.90;;;;;;5071198;28;20231;-72
2023/08/13 00:09:36;;;;;;;7.65;3.53;;;20.30;99.90;;;;;;5066465;28;20224;-71
2023/08/13 00:12:25;;;;;;;6.70;3.90;;;20.30;99.90;;;;;;5079683;28;20707;-71
2023/08/13 00:15:14;;;;;;;5.18;3.83;;;20.30;99.90;;;;;;5070600;28;20230;-72
2023/08/13 00:18:02;;;;;;;6.50;3.47;;;20.30;99.90;;;;;;5075080;28;20214;-72
2023/08/13 00:20:54;;;;;;;5.45;3.53;;;20.20;99.90;;;;;;5079686;28;20220;-71
2023/08/13 00:23:43;;;;;;;6.55;3.90;;;20.30;99.90;;;;;;5068527;28;20227;-71
2023/08/13 00:26:32;;;;;;;6.85;3.55;;;20.30;99.90;;;;;;5061493;28;20785;-71
2023/08/13 00:29:21;;;;;;;7.82;3.40;;;20.30;99.90;;;;;;5078877;28;20219;-72
2023/08/13 00:32:10;;;;;;;5.20;3.20;;;20.30;99.90;;;;;;5077093;28;20219;-71
2023/08/13 00:34:59;;;;;;;7.75;4.15;;;20.20;99.90;;;;;;5069353;28;20207;-72
2023/08/13 00:37:49;;;;;;;11.20;4.25;;;20.20;99.90;;;;;;5094716;28;20798;-71
2023/08/13 00:40:38;;;;;;;7.90;4.53;;;20.20;99.90;;;;;;5068328;28;20366;-72
2023/08/13 00:43:27;;;;;;;9.70;4.97;;;20.20;99.90;;;;;;5081600;28;20271;-71
2023/08/13 00:46:16;;;;;;;14.73;5.25;;;20.00;99.90;;;;;;5074912;28;20235;-72
2023/08/13 00:49:05;;;;;;;14.73;6.10;;;20.00;99.90;;;;;;5082549;28;20230;-72
2023/08/13 00:51:54;;;;;;;9.35;5.18;;;19.90;99.90;;;;;;5057346;28;20220;-71
2023/08/13 00:54:45;;;;;;;14.88;4.90;;;19.80;99.90;;;;;;5065648;28;20578;-71
2023/08/13 00:57:34;;;;;;;10.30;5.60;;;19.80;99.90;;;;;;5100711;28;20219;-71
2023/08/13 01:00:23;;;;;;;7.68;5.30;;;19.80;99.90;;;;;;5067827;28;20296;-72
2023/08/13 01:03:15;;;;;;;12.82;5.22;;;19.80;99.90;;;;;;5068291;28;20318;-72
2023/08/13 01:06:12;;;;;;;8.75;5.20;;;19.80;99.90;;;;;;5065320;28;20227;-72
2023/08/13 01:09:12;;;;;;;8.18;5.07;;;19.80;99.90;;;;;;5072835;28;20212;-72
2023/08/13 01:12:09;;;;;;;10.02;5.70;;;19.70;99.90;;;;;;5075675;28;20224;-72
2023/08/13 01:15:05;;;;;;;11.18;5.63;;;19.80;99.90;;;;;;5082168;28;20222;-73
2023/08/13 01:17:54;;;;;;;8.80;5.07;;;19.70;99.90;;;;;;5076312;28;20279;-72
2023/08/13 01:20:45;;;;;;;7.05;5.60;;;19.80;99.90;;;;;;5066715;28;20721;-73
2023/08/13 01:23:35;;;;;;;9.65;6.03;;;19.80;99.90;;;;;;5091806;28;20222;-72
2023/08/13 01:26:29;;;;;;;14.40;6.45;;;19.80;99.90;;;;;;5083368;28;20913;-72
2023/08/13 01:29:38;;;;;;;12.18;6.30;;;19.60;99.90;;;;;;5075247;28;20668;-73
2023/08/13 01:32:34;;;;;;;14.48;7.00;;;19.60;99.90;;;;;;5077694;28;20215;-72
2023/08/13 01:35:25;;;;;;;14.80;6.93;;;19.60;99.90;;;;;;5062147;28;20235;-72
2023/08/13 01:38:15;;;;;;;12.65;7.10;;;19.60;99.90;;;;;;5063453;28;20219;-72
2023/08/13 01:41:05;;;;;;;10.57;7.57;;;19.60;99.90;;;;;;5082319;28;20391;-72
2023/08/13 01:43:57;;;;;;;10.65;7.05;;;19.70;99.90;;;;;;5064032;28;20731;-73
2023/08/13 01:46:46;;;;;;;12.80;7.18;;;19.70;99.90;;;;;;5080531;28;20265;-73
2023/08/13 01:49:35;;;;;;;14.30;8.05;;;19.60;99.90;;;;;;5063354;28;20247;-73
2023/08/13 01:52:24;;;;;;;14.18;8.10;;;19.60;99.90;;;;;;5065892;28;20228;-72
2023/08/13 01:55:13;;;;;;;15.45;8.63;;;19.20;99.90;;;;;;5083304;28;20215;-72
2023/08/13 01:58:04;;;;;;;16.92;8.55;;;19.00;99.90;;;;;;5068018;28;20289;-73
2023/08/13 02:00:53;;;;;;;16.40;8.85;;;19.00;99.90;;;;;;5072765;28;20230;-72
2023/08/13 02:03:42;;;;;;;17.85;8.38;;;19.00;99.90;;;;;;5068896;28;20216;-73
2023/08/13 02:06:33;;;;;;;15.98;7.82;;;19.10;99.90;;;;;;5066440;28;20215;-73
2023/08/13 02:09:21;;;;;;;15.45;8.07;;;19.00;99.90;;;;;;5076148;28;20218;-72
2023/08/13 02:12:11;;;;;;;13.07;8.57;;;19.00;99.90;;;;;;5093414;27;20228;-72
2023/08/13 02:15:01;;;;;;;12.75;8.10;;;18.80;99.90;;;;;;5087873;28;20597;-70
2023/08/13 02:17:50;;;;;;;12.10;8.10;;;19.00;99.90;;;;;;5081902;28;20430;-73
2023/08/13 02:20:38;;;;;;;11.32;7.88;;;18.90;99.90;;;;;;5080652;28;20242;-72
2023/08/13 02:23:27;;;;;;;11.30;8.40;;;18.80;99.90;;;;;;5068895;28;20226;-73
2023/08/13 02:26:16;;;;;;;20.70;7.63;;;18.90;99.90;;;;;;5070497;28;20222;-73
2023/08/13 02:29:05;;;;;;;11.90;7.57;;;18.80;99.90;;;;;;5075690;28;20227;-73
2023/08/13 02:31:55;;;;;;;11.32;7.38;;;18.90;99.90;;;;;;5070141;28;20808;-73
2023/08/13 02:34:45;;;;;;;13.35;7.47;;;19.00;99.90;;;;;;5064488;28;20223;-72
2023/08/13 02:37:35;;;;;;;12.38;7.90;;;18.90;99.90;;;;;;5070967;28;21138;-72
2023/08/13 02:40:24;;;;;;;10.70;7.43;;;18.80;99.90;;;;;;5066119;28;20231;-72
2023/08/13 02:43:13;;;;;;;11.13;7.70;;;18.80;99.90;;;;;;5066603;28;20247;-72
2023/08/13 02:46:04;;;;;;;10.48;6.93;;;18.80;99.90;;;;;;5068323;28;20227;-72
2023/08/13 02:48:55;;;;;;;11.27;7.20;;;18.80;99.90;;;;;;5059606;28;20856;-71
2023/08/13 02:51:44;;;;;;;11.55;7.85;;;18.80;99.90;;;;;;5073342;28;21148;-72
2023/08/13 02:54:34;;;;;;;10.55;7.32;;;18.80;99.90;;;;;;5067842;28;20752;-72
2023/08/13 02:57:23;;;;;;;11.85;7.88;;;18.80;99.90;;;;;;5070945;28;20753;-72
2023/08/13 03:00:12;;;;;;;11.45;7.57;;;18.70;99.90;;;;;;5082905;28;20279;-71
2023/08/13 03:03:01;;;;;;;14.98;7.97;;;18.60;99.90;;;;;;5094786;27;20219;-72
2023/08/13 03:05:52;;;;;;;15.35;8.55;;;18.70;99.90;;;;;;5066990;28;20342;-72
2023/08/13 03:08:43;;;;;;;11.95;7.97;;;18.70;99.90;;;;;;5066758;28;20230;-72
2023/08/13 03:11:32;;;;;;;12.27;8.10;;;18.50;99.90;;;;;;5065791;28;20234;-72
2023/08/13 03:14:22;;;;;;;9.57;7.78;;;18.40;99.90;;;;;;5060374;28;20221;-72
2023/08/13 03:17:11;;;;;;;12.85;8.02;;;18.30;99.90;;;;;;5063662;28;20340;-73
2023/08/13 03:20:02;;;;;;;13.63;8.70;;;18.30;99.90;;;;;;5077829;28;20242;-72
2023/08/13 03:22:52;;;;;;;13.23;8.30;;;18.10;99.90;;;;;;5068346;28;20225;-72
2023/08/13 03:25:41;;;;;;;14.02;8.50;;;18.30;99.90;;;;;;5083224;28;20306;-72
2023/08/13 03:28:30;;;;;;;14.27;8.43;;;18.20;99.90;;;;;;5072074;28;20598;-73
2023/08/13 03:31:26;;;;;;;13.38;8.18;;;18.30;99.90;;;;;;5063515;28;20231;-72
2023/08/13 03:34:23;;;;;;;10.77;8.05;;;18.20;99.90;;;;;;5075786;28;20250;-72
2023/08/13 03:37:13;;;;;;;10.38;8.20;;;18.20;99.90;;;;;;5066823;28;20228;-73
2023/08/13 03:40:05;;;;;;;10.48;8.00;;;18.20;99.90;;;;;;5066563;28;20222;-73
2023/08/13 03:42:55;;;;;;;11.48;8.75;;;18.10;99.90;;;;;;5098553;27;20220;-72
2023/08/13 03:45:44;;;;;;;13.95;8.60;;;18.30;99.90;;;;;;5092492;27;20306;-72
2023/08/13 03:48:33;;;;;;;12.63;8.48;;;18.30;99.90;;;;;;5081042;28;20304;-72
2023/08/13 03:51:23;;;;;;;11.38;8.70;;;18.10;99.90;;;;;;5066656;28;20234;-72
2023/08/13 03:54:12;;;;;;;13.65;8.18;;;18.20;99.90;;;;;;5077441;28;20290;-72
2023/08/13 03:57:04;;;;;;;14.32;8.30;;;18.00;99.90;;;;;;5076599;28;20804;-72
2023/08/13 03:59:54;;;;;;;11.55;8.13;;;18.30;99.90;;;;;;5082518;28;20223;-73
2023/08/13 04:02:49;;;;;;;15.75;9.13;;;18.10;99.90;;;;;;5085416;28;20215;-72
2023/08/13 04:05:39;;;;;;;12.93;8.27;;;18.20;99.90;;;;;;5075092;28;20237;-72
2023/08/13 04:08:28;;;;;;;15.10;8.38;;;18.20;99.90;;;;;;5066307;28;20274;-71
2023/08/13 04:11:17;;;;;;;13.23;8.38;;;18.10;99.90;;;;;;5093586;27;20230;-71
2023/08/13 04:14:07;;;;;;;13.27;8.25;;;18.10;99.90;;;;;;5088235;28;20823;-71
2023/08/13 04:16:56;;;;;;;13.02;8.32;;;18.30;99.90;;;;;;5083480;27;20757;-72
2023/08/13 04:19:45;;;;;;;14.40;7.82;;;18.50;99.90;;;;;;5092370;27;20224;-71
2023/08/13 04:22:35;;;;;;;9.40;8.15;;;18.50;99.90;;;;;;5078531;28;20232;-71
2023/08/13 04:25:25;;;;;;;13.40;8.13;;;18.50;99.90;;;;;;5067605;28;20228;-71
2023/08/13 04:28:15;;;;;;;15.35;7.95;;;18.60;99.90;;;;;;5063133;28;20254;-71
2023/08/13 04:31:07;;;;;;;11.13;8.10;;;18.50;99.90;;;;;;5065290;28;20227;-72
2023/08/13 04:33:58;;;;;;;9.25;7.43;;;18.80;99.90;;;;;;5086495;28;20701;-72
2023/08/13 04:36:47;;;;;;;11.88;8.05;;;19.00;99.90;;;;;;5071260;28;20738;-71
2023/08/13 04:39:36;;;;;;;12.32;8.07;;;19.20;99.90;;;;;;5072492;28;20459;-71
2023/08/13 04:42:25;;;;;;;12.00;7.43;;;19.30;99.90;;;;;;5075995;28;20306;-71
2023/08/13 04:45:15;;;;;;;10.43;7.20;;;19.30;99.90;;;;;;5060483;28;20707;-72
2023/08/13 04:48:07;;;;;;;10.15;7.35;;;19.50;99.90;;;;;;5062849;28;20352;-73
2023/08/13 04:50:58;;;;;;;9.60;6.72;;;19.70;99.90;;;;;;5065914;28;20215;-72
2023/08/13 04:53:47;;;;;;;9.73;6.20;;;19.80;99.90;;;;;;5092938;27;20222;-71
2023/08/13 04:56:38;;;;;;;10.25;6.00;;;20.00;99.90;;;;;;5068792;28;20322;-71
2023/08/13 04:59:28;;;;;;;9.93;6.78;;;20.00;99.90;;;;;;5083135;28;20761;-72
2023/08/13 05:02:16;;;;;;;8.68;6.70;;;20.20;99.90;;;;;;5070853;28;20970;-72
2023/08/13 05:05:08;;;;;;;8.55;6.20;;;20.50;99.90;;;;;;5072491;28;20268;-72
2023/08/13 05:07:57;;;;;;;9.00;6.43;;;20.60;99.90;;;;;;5068884;28;20222;-70
2023/08/13 05:10:47;;;;;;;8.25;6.47;;;20.80;99.90;;;;;;5074878;28;20250;-72
2023/08/13 05:13:35;;;;;;;8.32;6.15;;;20.70;99.90;;;;;;5066689;28;20238;-72
2023/08/13 05:16:24;;;;;;;8.57;6.13;;;20.60;99.90;;;;;;5080624;28;20250;-71
2023/08/13 05:19:14;;;;;;;9.68;6.68;;;20.50;99.90;;;;;;5065032;28;20231;-72
2023/08/13 05:22:05;;;;;;;12.30;6.13;;;20.30;99.90;;;;;;5071897;28;20219;-71
2023/08/13 05:24:54;;;;;;;11.35;6.40;;;20.40;99.90;;;;;;5095810;27;20243;-72
2023/08/13 05:27:43;;;;;;;9.13;6.43;;;20.30;99.90;;;;;;5064665;28;20215;-72
2023/08/13 05:30:35;;;;;;;9.93;6.43;;;20.20;99.90;;;;;;5073645;28;20298;-72
2023/08/13 05:33:25;;;;;;;8.93;6.10;;;20.10;99.90;;;;;;5066138;28;20224;-71
2023/08/13 05:36:15;;;;;;;11.77;6.60;;;20.30;99.90;;;;;;5072174;28;20226;-71
2023/08/13 05:39:07;;;;;;;8.77;6.35;;;20.40;99.90;;;;;;5069286;28;20227;-72
2023/08/13 05:41:56;;;;;;;7.90;6.28;;;20.70;99.90;;;;;;5070516;28;20220;-72
2023/08/13 05:44:45;;;;;;;9.07;6.43;;;21.00;99.90;;;;;;5082524;28;20515;-72
2023/08/13 05:47:34;;;;;;;8.50;6.05;;;21.40;99.90;;;;;;5072896;28;20234;-71
2023/08/13 05:50:24;;;;;;;9.10;6.65;;;22.20;99.90;;;;;;5064756;28;20325;-72
2023/08/13 05:53:13;;;;;;;12.55;6.78;;;22.70;99.90;;;;;;5070051;28;20748;-73
2023/08/13 05:56:05;;;;;;;11.85;6.72;;;22.70;99.90;;;;;;5083137;28;20253;-71
2023/08/13 05:58:54;;;;;;;10.18;6.78;;;22.40;99.90;;;;;;5054894;28;20219;-72
2023/08/13 06:01:43;;;;;;;8.10;6.53;;;22.30;99.90;;;;;;5070961;28;20219;-71
2023/08/13 06:04:34;;;;;;;10.32;6.00;;;22.20;99.90;;;;;;5084256;28;20220;-72
2023/08/13 06:07:23;;;;;;;7.40;6.00;;;22.40;99.90;;;;;;5070293;28;20226;-71
2023/08/13 06:10:12;;;;;;;10.00;6.50;;;22.50;99.90;;;;;;5070063;28;20314;-72
2023/08/13 06:13:02;;;;;;;8.07;6.22;;;22.60;99.90;;;;;;5084593;28;20749;-72
2023/08/13 06:15:51;;;;;;;7.63;6.15;;;22.60;99.90;;;;;;5081748;28;20223;-72
2023/08/13 06:18:40;;;;;;;7.65;6.38;;;22.50;99.90;;;;;;5083814;28;20250;-71
2023/08/13 06:21:30;;;;;;;10.05;6.63;;;22.20;99.90;;;;;;5089171;28;20247;-73
2023/08/13 06:24:20;;;;;;;9.20;6.60;;;22.00;99.90;;;;;;5076984;28;20226;-71
2023/08/13 06:27:08;;;;;;;7.80;6.35;;;22.00;99.90;;;;;;5083571;28;20298;-72
2023/08/13 06:29:59;;;;;;;9.52;6.53;;;22.10;99.90;;;;;;5099196;27;20217;-71
2023/08/13 06:32:55;;;;;;;8.52;6.13;;;22.70;99.90;;;;;;5081777;28;20319;-72
2023/08/13 06:35:46;;;;;;;8.80;6.60;;;23.80;99.90;;;;;;5066308;28;20678;-71
2023/08/13 06:38:36;;;;;;;13.27;6.22;;;23.90;99.90;;;;;;5066487;28;20231;-72
2023/08/13 06:41:29;;;;;;;10.98;6.45;;;23.80;99.90;;;;;;5082483;28;20304;-72
2023/08/13 06:44:23;;;;;;;9.00;5.85;;;23.60;99.90;;;;;;5091125;27;20234;-72
2023/08/13 06:47:13;;;;;;;8.80;5.95;;;23.60;99.90;;;;;;5063668;28;20227;-73
2023/08/13 06:50:03;;;;;;;9.80;5.68;;;23.60;99.90;;;;;;5096934;28;20254;-71
2023/08/13 06:52:52;;;;;;;7.60;6.20;;;23.50;99.90;;;;;;5060641;28;20584;-72
2023/08/13 06:55:42;;;;;;;11.73;6.05;;;23.50;99.90;;;;;;5050251;28;20225;-71
2023/08/13 06:58:31;;;;;;;8.20;5.97;;;23.50;99.90;;;;;;5101950;27;20348;-72
2023/08/13 07:01:20;;;;;;;9.30;6.15;;;23.50;99.90;;;;;;5069390;28;20220;-71
2023/08/13 07:04:10;;;;;;;8.27;6.25;;;23.60;99.90;;;;;;5082893;28;20602;-71
2023/08/13 07:06:59;;;;;;;9.60;6.28;;;23.70;99.90;;;;;;5070103;28;20631;-71
2023/08/13 07:09:48;;;;;;;11.85;6.47;;;23.80;99.90;;;;;;5081000;28;20224;-72
2023/08/13 07:12:37;;;;;;;8.73;5.95;;;23.90;99.90;;;;;;5096903;27;20246;-71
2023/08/13 07:15:26;;;;;;;12.60;6.30;;;23.90;99.90;;;;;;5079280;28;20975;-72
2023/08/13 07:18:15;;;;;;;7.88;6.05;;;24.00;99.90;;;;;;5080640;28;20271;-71
2023/08/13 07:21:06;;;;;;;11.52;6.30;;;24.00;99.90;;;;;;5059505;28;20685;-72
2023/08/13 07:23:58;;;;;;;11.15;6.35;;;24.00;99.90;;;;;;5084563;28;20215;-71
2023/08/13 07:26:47;;;;;;;7.03;6.03;;;24.00;99.90;;;;;;5078212;28;20230;-73
2023/08/13 07:29:36;;;;;;;10.77;6.47;;;24.30;99.90;;;;;;5064685;28;20280;-73
2023/08/13 07:32:24;;;;;;;6.70;5.95;;;24.30;99.90;;;;;;5080615;28;20223;-72
2023/08/13 07:35:13;;;;;;;7.18;6.20;;;24.20;99.90;;;;;;5076681;28;20305;-72
2023/08/13 07:38:04;;;;;;;7.55;6.20;;;24.30;99.90;;;;;;5069323;28;20216;-72
2023/08/13 07:40:55;;;;;;;13.82;5.90;;;24.40;99.90;;;;;;5081852;28;20622;-71
2023/08/13 07:43:44;;;;;;;8.27;5.38;;;24.40;99.90;;;;;;5071147;28;20887;-72
2023/08/13 07:46:33;;;;;;;8.30;5.72;;;25.20;99.90;;;;;;5073920;28;20231;-72
2023/08/13 07:49:22;;;;;;;8.30;5.63;;;25.80;99.90;;;;;;5098406;27;20240;-71
2023/08/13 07:52:11;;;;;;;8.63;5.47;;;26.00;99.90;;;;;;5062088;28;20232;-71
2023/08/13 07:55:02;;;;;;;6.40;5.15;;;26.10;99.90;;;;;;5073794;28;20370;-72
2023/08/13 07:57:51;;;;;;;7.13;5.70;;;26.30;99.90;;;;;;5092364;27;20231;-72
2023/08/13 08:00:40;;;;;;;8.30;5.53;;;26.60;99.90;;;;;;5095737;27;20276;-72
2023/08/13 08:03:29;;;;;;;10.07;5.63;;;27.00;99.90;;;;;;5085943;28;20283;-71
2023/08/13 08:06:18;;;;;;;7.30;5.45;;;27.50;99.90;;;;;;5098396;27;20337;-72
2023/08/13 08:09:07;;;;;;;5.90;5.30;;;27.70;99.90;;;;;;5070753;28;20219;-70
2023/08/13 08:11:57;;;;;;;6.47;5.70;;;27.80;99.90;;;;;;5083440;28;20645;-71
2023/08/13 08:14:45;;;;;;;7.38;5.72;;;28.00;99.90;;;;;;5071647;28;20220;-72
2023/08/13 08:17:35;;;;;;;10.57;5.95;;;27.90;99.90;;;;;;5065853;28;20895;-71
2023/08/13 08:20:24;;;;;;;7.82;5.25;;;28.00;99.90;;;;;;5078835;28;20231;-72
2023/08/13 08:23:13;;;;;;;7.07;5.78;;;28.20;99.90;;;;;;5081246;28;20212;-71
2023/08/13 08:26:02;;;;;;;6.65;5.57;;;28.50;99.90;;;;;;5082895;28;20224;-71
2023/08/13 08:28:54;;;;;;;6.53;5.03;;;29.00;99.90;;;;;;5058700;28;20220;-71
2023/08/13 08:31:43;;;;;;;7.10;5.55;;;29.20;99.90;;;;;;5081205;28;20238;-71
2023/08/13 08:34:33;;;;;;;8.02;5.40;;;30.00;99.90;;;;;;5064933;28;20310;-71
2023/08/13 08:37:22;;;;;;;8.82;5.20;;;30.50;99.90;;;;;;5071845;28;20226;-71
2023/08/13 08:40:11;;;;;;;6.63;5.22;;;30.60;99.90;;;;;;5067922;28;20227;-73
2023/08/13 08:43:00;;;;;;;6.50;5.30;;;30.80;99.90;;;;;;5078249;28;20235;-71
2023/08/13 08:45:52;;;;;;;7.55;5.05;;;31.00;99.90;;;;;;5083757;28;20214;-72
2023/08/13 08:48:43;;;;;;;7.97;5.30;;;31.20;99.90;;;;;;5062577;28;20227;-71
2023/08/13 08:51:33;;;;;;;8.77;4.82;;;31.50;99.90;;;;;;5060992;28;20246;-72
2023/08/13 08:54:22;;;;;;;8.32;5.45;;;31.60;99.10;;;;;;5080280;28;20322;-71
2023/08/13 08:57:12;;;;;;;6.47;4.47;;;32.00;99.90;;;;;;5076252;28;20299;-71
2023/08/13 09:00:02;;;;;;;7.97;5.30;;;32.40;98.70;;;;;;5078945;28;20250;-71
2023/08/13 09:02:53;;;;;;;6.13;4.65;;;32.80;98.90;;;;;;5096751;28;20231;-71
2023/08/13 09:05:43;;;;;;;6.97;5.20;;;32.60;96.90;;;;;;5082455;28;20222;-71
2023/08/13 09:08:32;;;;;;;8.15;5.15;;;32.60;96.50;;;;;;5078307;28;20671;-71
2023/08/13 09:11:21;;;;;;;8.15;5.43;;;32.60;96.20;;;;;;5080887;28;20602;-71
2023/08/13 09:14:10;;;;;;;7.50;5.38;;;32.80;95.90;;;;;;5058319;28;20370;-71
2023/08/13 09:16:59;;;;;;;5.30;4.60;;;32.70;95.60;;;;;;5083134;28;20306;-71
2023/08/13 09:19:50;;;;;;;6.35;5.35;;;33.10;95.70;;;;;;5079293;28;20218;-71
2023/08/13 09:22:40;;;;;;;5.93;5.13;;;33.30;94.80;;;;;;5078484;28;20237;-71
2023/08/13 09:25:29;;;;;;;8.10;5.50;;;33.40;94.20;;;;;;5064282;28;20226;-70
2023/08/13 09:28:18;;;;;;;6.05;5.50;;;33.60;94.30;;;;;;5075786;28;20226;-71
2023/08/13 09:31:06;;;;;;;6.75;5.90;;;34.10;96.30;;;;;;5077858;28;20270;-70
2023/08/13 09:33:55;;;;;;;9.05;6.03;;;34.80;95.50;;;;;;5093902;28;20230;-72
2023/08/13 09:36:46;;;;;;;8.93;6.13;;;35.50;94.40;;;;;;5075896;28;20219;-71
2023/08/13 09:39:36;;;;;;;6.18;5.28;;;35.80;91.20;;;;;;5073085;28;20982;-70
2023/08/13 09:42:25;;;;;;;10.13;5.65;;;35.40;90.60;;;;;;5071542;28;20677;-71
2023/08/13 09:45:17;;;;;;;10.40;7.65;;;35.70;90.90;;;;;;5075259;28;20231;-70
2023/08/13 09:48:08;;;;;;;8.05;5.78;;;36.00;89.60;;;;;;5067732;28;20598;-70
2023/08/13 09:50:59;;;;;;;7.25;6.25;;;36.50;91.00;;;;;;5087610;28;20798;-71
2023/08/13 09:53:58;;;;;;;13.32;6.63;;;36.90;90.50;;;;;;5083868;28;20219;-70
2023/08/13 09:56:54;;;;;;;9.13;5.45;;;37.30;87.00;;;;;;5090140;28;20219;-71
2023/08/13 09:59:45;;;;;;;6.82;5.25;;;37.90;84.20;;;;;;5088519;28;20290;-71
2023/08/13 10:02:35;;;;;;;8.15;5.15;;;38.80;85.40;;;;;;5084768;28;20315;-71
2023/08/13 10:05:25;;;;;;;11.48;5.05;;;39.80;82.50;;;;;;5078874;28;20219;-71
2023/08/13 10:08:14;;;;;;;5.82;5.00;;;40.20;81.20;;;;;;5083731;28;20260;-71
2023/08/13 10:11:06;;;;;;;7.10;4.97;;;40.50;79.40;;;;;;5082689;28;20218;-70
2023/08/13 10:13:58;;;;;;;9.57;4.72;;;40.60;73.50;;;;;;5054921;28;20223;-71
2023/08/13 10:16:47;;;;;;;6.63;4.55;;;40.40;74.60;;;;;;5054649;28;20602;-71
2023/08/13 10:19:39;;;;;;;5.88;4.45;;;40.40;73.10;;;;;;5056127;28;20438;-71
2023/08/13 10:22:32;;;;;;;11.05;5.40;;;41.10;74.00;;;;;;5059051;28;20238;-71
2023/08/13 10:25:28;;;;;;;6.97;4.65;;;41.00;74.60;;;;;;5053183;28;20242;-71
2023/08/13 10:28:23;;;;;;;4.75;4.35;;;40.80;73.20;;;;;;5059358;28;20216;-71
2023/08/13 10:31:35;;;;;;;5.05;4.10;;;40.50;73.40;;;;;;5058019;28;20794;-72
2023/08/13 10:34:41;;;;;;;5.47;4.20;;;41.50;75.20;;;;;;5058257;28;20353;-72
2023/08/13 10:37:32;;;;;;;5.72;4.05;;;41.90;68.50;;;;;;5057532;28;20252;-71
2023/08/13 10:40:21;;;;;;;8.00;4.30;;;42.60;70.20;;;;;;5051559;28;20306;-75
2023/08/13 10:43:22;;;;;;;4.40;4.00;;;42.90;64.80;;;;;;5046993;28;20361;-71
2023/08/13 10:46:11;;;;;;;6.28;3.88;;;42.60;66.10;;;;;;5050676;28;20226;-72
2023/08/13 10:49:00;;;;;;;4.95;4.13;;;43.40;66.40;;;;;;5067284;28;20604;-72
2023/08/13 10:51:50;;;;;;;5.05;3.85;;;44.40;65.40;;;;;;5057540;28;20220;-72
2023/08/13 10:54:40;;;;;;;5.85;3.80;;;45.00;64.00;;;;;;5072266;28;20223;-71
2023/08/13 10:57:29;;;;;;;6.35;3.70;;;45.20;64.50;;;;;;5059205;28;20223;-71
2023/08/13 11:00:21;;;;;;;5.00;3.60;;;45.10;62.70;;;;;;5060249;28;20246;-71
2023/08/13 11:03:21;;;;;;;4.25;3.22;;;45.30;64.00;;;;;;5058019;28;20215;-72
2023/08/13 11:06:10;;;;;;;4.25;3.83;;;45.30;60.20;;;;;;5049215;28;20234;-72
2023/08/13 11:09:00;;;;;;;3.60;3.30;;;45.30;60.10;;;;;;5063059;28;20216;-71
2023/08/13 11:11:48;;;;;;;4.25;3.33;;;45.80;61.70;;;;;;5067266;28;20927;-72
2023/08/13 11:14:38;;;;;;;4.22;3.40;;;45.80;60.00;;;;;;5074475;28;20345;-73
2023/08/13 11:17:29;;;;;;;3.88;3.22;;;46.00;58.90;;;;;;5077259;28;20229;-71
2023/08/13 11:20:19;;;;;;;4.10;3.20;;;45.50;57.50;;;;;;5078467;28;20574;-72
2023/08/13 11:23:08;;;;;;;3.95;3.38;;;44.60;58.10;;;;;;5084020;28;20238;-71
2023/08/13 11:25:58;;;;;;;3.63;3.33;;;45.40;58.60;;;;;;5075087;28;20693;-72
2023/08/13 11:28:47;;;;;;;3.85;3.55;;;46.40;57.50;;;;;;5066212;28;20307;-71
2023/08/13 11:31:38;;;;;;;4.13;3.40;;;47.30;58.30;;;;;;5071100;28;20240;-72
2023/08/13 11:34:28;;;;;;;6.80;3.38;;;47.60;57.80;;;;;;5078781;28;20238;-71
2023/08/13 11:37:17;;;;;;;5.95;3.30;;;48.10;55.90;;;;;;5097110;27;20218;-71
2023/08/13 11:40:10;;;;;;;6.18;3.00;;;48.60;55.50;;;;;;5077430;28;20231;-71
2023/08/13 11:43:01;;;;;;;4.55;3.30;;;48.90;53.70;;;;;;5068236;28;20700;-71
2023/08/13 11:45:50;;;;;;;4.95;3.20;;;49.40;53.30;;;;;;5067076;28;20223;-71
2023/08/13 11:48:39;;;;;;;9.90;3.20;;;49.60;51.10;;;;;;5056431;28;20236;-71
2023/08/13 11:51:29;;;;;;;5.53;3.53;;;50.50;52.00;;;;;;5100684;27;20260;-71
2023/08/13 11:54:20;;;;;;;3.58;3.17;;;51.10;50.70;;;;;;5082005;28;20242;-71
2023/08/13 11:57:11;;;;;;;3.50;3.15;;;51.40;49.00;;;;;;5075708;28;20294;-71
2023/08/13 12:00:03;;;;;;;4.68;3.10;;;51.00;48.50;;;;;;5068347;28;20215;-71
2023/08/13 12:03:00;;;;;;;4.47;2.92;;;51.70;48.40;;;;;;5082438;28;20227;-70
2023/08/13 12:05:55;;;;;;;6.07;3.13;;;51.50;48.20;;;;;;5098209;27;20261;-71
2023/08/13 12:08:47;;;;;;;5.47;3.00;;;51.30;49.10;;;;;;5072398;28;20215;-71
2023/08/13 12:11:36;;;;;;;3.28;2.30;;;46.90;48.80;;;;;;5067027;28;20226;-71
2023/08/13 12:14:24;;;;;;;6.03;2.78;;;42.90;53.40;;;;;;5062050;28;20317;-71
2023/08/13 12:17:13;;;;;;;4.63;3.22;;;41.40;56.60;;;;;;5069131;28;20230;-72
2023/08/13 12:20:03;;;;;;;3.65;3.00;;;40.50;57.90;;;;;;5079755;28;20716;-71
2023/08/13 12:22:54;;;;;;;3.72;3.38;;;39.70;59.50;;;;;;5065288;28;20227;-71
2023/08/13 12:25:44;;;;;;;5.10;3.45;;;38.50;64.40;;;;;;5083765;28;20222;-70
2023/08/13 12:28:35;;;;;;;4.03;3.63;;;37.90;65.20;;;;;;5072857;28;20690;-70
2023/08/13 12:31:25;;;;;;;4.97;3.83;;;38.10;66.20;;;;;;5063495;28;20244;-72
2023/08/13 12:34:14;;;;;;;6.28;3.90;;;37.20;68.80;;;;;;5084988;28;20223;-70
2023/08/13 12:37:03;;;;;;;4.50;3.72;;;36.80;73.10;;;;;;5066433;28;20214;-71
2023/08/13 12:39:52;;;;;;;6.28;3.80;;;36.20;73.90;;;;;;5064971;28;20230;-72
2023/08/13 12:42:46;;;;;;;6.07;4.20;;;35.30;77.90;;;;;;5076533;28;20327;-73
2023/08/13 12:45:35;;;;;;;4.57;3.70;;;34.80;80.50;;;;;;5065953;28;20225;-71
2023/08/13 12:48:24;;;;;;;4.00;3.70;;;34.60;78.90;;;;;;5066336;28;20230;-72
2023/08/13 12:51:12;;;;;;;4.78;4.05;;;34.40;78.60;;;;;;5086829;28;20226;-71
2023/08/13 12:54:01;;;;;;;6.15;4.05;;;34.30;80.50;;;;;;5076454;28;20571;-72
2023/08/13 12:56:50;;;;;;;7.43;4.10;;;33.90;84.50;;;;;;5074939;28;20216;-71
2023/08/13 12:59:41;;;;;;;4.32;3.67;;;33.90;80.90;;;;;;5062995;28;20233;-72
2023/08/13 13:02:30;;;;;;;4.07;3.60;;;33.50;81.50;;;;;;5076308;28;20223;-73
2023/08/13 13:05:19;;;;;;;5.10;3.80;;;33.40;82.80;;;;;;5062171;28;20223;-72
2023/08/13 13:08:08;;;;;;;5.63;3.95;;;33.10;87.50;;;;;;5058290;28;20704;-73
2023/08/13 13:10:57;;;;;;;4.68;3.90;;;32.70;86.10;;;;;;5073662;28;20956;-71
2023/08/13 13:13:46;;;;;;;5.50;3.80;;;32.50;90.20;;;;;;5075505;28;20219;-72
2023/08/13 13:16:37;;;;;;;5.60;3.90;;;32.30;92.70;;;;;;5064126;28;20224;-71
2023/08/13 13:19:26;;;;;;;6.38;4.40;;;32.20;90.40;;;;;;5070785;28;20291;-72
2023/08/13 13:22:14;;;;;;;9.90;4.25;;;32.10;91.30;;;;;;5084737;28;20309;-73
2023/08/13 13:25:04;;;;;;;5.63;4.38;;;32.00;90.40;;;;;;5062583;28;20218;-72
2023/08/13 13:27:53;;;;;;;8.55;4.13;;;32.00;91.70;;;;;;5077537;28;20276;-72
2023/08/13 13:30:42;;;;;;;5.70;3.92;;;31.70;92.50;;;;;;5062750;28;20227;-71
2023/08/13 13:33:33;;;;;;;6.15;4.18;;;31.50;93.10;;;;;;5068398;28;20218;-72
2023/08/13 13:36:23;;;;;;;6.25;3.85;;;31.30;91.90;;;;;;5090545;28;20595;-71
2023/08/13 13:39:11;;;;;;;4.53;3.90;;;31.50;92.40;;;;;;5092015;27;20298;-71
2023/08/13 13:42:00;;;;;;;5.75;3.80;;;31.50;92.70;;;;;;5072665;28;20226;-71
2023/08/13 13:44:49;;;;;;;9.15;4.10;;;31.40;92.80;;;;;;5072851;28;20309;-71
2023/08/13 13:47:38;;;;;;;7.18;4.10;;;31.10;92.90;;;;;;5071445;28;20222;-71
2023/08/13 13:50:28;;;;;;;6.28;4.13;;;31.10;93.10;;;;;;5086111;28;20226;-71
2023/08/13 13:53:17;;;;;;;4.00;3.63;;;31.10;94.60;;;;;;5091403;28;20276;-72
2023/08/13 13:56:08;;;;;;;6.30;4.32;;;31.00;95.10;;;;;;5075632;28;20230;-73
2023/08/13 13:58:57;;;;;;;4.43;4.03;;;31.00;94.10;;;;;;5086743;28;20218;-71
2023/08/13 14:01:46;;;;;;;4.35;3.92;;;31.10;94.10;;;;;;5076385;28;20215;-72
2023/08/13 14:04:35;;;;;;;5.65;4.20;;;31.10;93.30;;;;;;5083582;28;20218;-71
2023/08/13 14:07:26;;;;;;;7.22;4.05;;;31.10;93.30;;;;;;5071369;28;20226;-71
2023/08/13 14:10:15;;;;;;;5.38;4.35;;;31.00;93.80;;;;;;5078392;28;20329;-71
2023/08/13 14:13:05;;;;;;;5.45;4.38;;;30.90;93.40;;;;;;5084828;28;20245;-70
2023/08/13 14:15:58;;;;;;;10.55;4.50;;;30.60;94.10;;;;;;5082889;28;20796;-71
2023/08/13 14:18:47;;;;;;;6.97;4.47;;;30.60;94.60;;;;;;5083134;28;20223;-72
2023/08/13 14:21:35;;;;;;;8.80;4.30;;;30.40;94.80;;;;;;5086646;28;21047;-71
2023/08/13 14:24:26;;;;;;;5.88;4.32;;;30.30;95.20;;;;;;5084567;27;20652;-71
2023/08/13 14:27:14;;;;;;;5.60;4.70;;;30.50;95.80;;;;;;5066950;28;20499;-71
2023/08/13 14:30:05;;;;;;;4.93;4.45;;;30.40;96.20;;;;;;5065021;28;20650;-71
2023/08/13 14:32:57;;;;;;;4.45;4.05;;;30.40;95.50;;;;;;5069241;28;20228;-72
2023/08/13 14:35:46;;;;;;;7.28;4.47;;;30.40;95.80;;;;;;5081264;28;20256;-71
2023/08/13 14:38:35;;;;;;;5.47;4.30;;;30.40;95.90;;;;;;5068114;28;21362;-71
2023/08/13 14:41:25;;;;;;;4.90;4.40;;;30.20;96.10;;;;;;5060016;28;21004;-72